Folsom, NM (88419)

3:10 PM MDT on July 28, 2016 (GMT -0600)
Baca Valley | | Change Station

Elev 6645 ft 36.76 °N, 103.83 °W | Updated 3 minutes ago

Clear
Clear
83.0 °F
Feels Like 81 °F
N
10.0
Wind Variable Wind from SSW
Gusts 26.0 mph

Today
High -- | Low -- °F
--% Chance of Precip.
Yesterday
High -- | Low -- °F
Precip. -- in
Pressure 30.18 in
Visibility 10.0 miles
Clouds Clear
Heat Index 81 °F
Dew Point 48 °F
Humidity 30%
Rainfall Not available.
Snow Depth Not available.
5:57 AM 8:05 PM
Waning Crescent, 29% visible
METAR KRTN 282053Z AUTO 20010KT 10SM CLR 34/05 A3018 RMK AO2 LTG DSNT NE SLPNO 60000 T03390050 56021
Pressure 30.18 in
Visibility 10.0 miles
Clouds Clear
Heat Index 81 °F
Dew Point 48 °F
Humidity 30%
Rainfall Not available.
Snow Depth Not available.
5:57 AM 8:05 PM
Waning Crescent, 29% visible
METAR KRTN 282053Z AUTO 20010KT 10SM CLR 34/05 A3018 RMK AO2 LTG DSNT NE SLPNO 60000 T03390050 56021

10-Day Weather Forecast

Almanac

Astronomy

Jul. 28, 2016 Rise Set
Actual Time
Civil Twilight
Nautical Twilight
Astronomical Twilight
Moon
Length of Visible Light
Length of Day
Tomorrow will be .
, % of the Moon is Illuminated

Today's Extremes

State Highs State Lows

Community

WunderPhotos

Upload Photos

1,928,223 photos uploaded!

WunderBlog® & News

Nearby

Air Quality

  Air Quality AQ Index Pollutant
Not available.

Snow Depth

Station Depth Elevation

Earthquake Activity

City Distance Mag. Time & Date
Minimum magnitude displayed is 2.5.

Coastal Water Temperatures

Place Temperature

Stations

Nearby Weather Stations

Station Location Temp. Windchill Dew Point Humidity Wind Precip. Elev Updated Type
                   

Watches & Warnings

There are currently no watches in effect.